Time;durP1;ratioP1;P1;durP2;ratioP2;P2;SDS_P1;SDS_P2;PMS_P1;PMS_P2;Temp;Humidity;BMP_temperature;BMP_pressure;BME280_temperature;BME280_humidity;BME280_pressure;Samples;Min_cycle;Max_cycle;Signal;HPM_P1;HPM_P2
2022/07/22 00:01:09;;;;;;;4.20;0.80;;;;;;;16.16;100.00;102243.94;5074334;28;20044;-32
2022/07/22 00:03:37;;;;;;;4.75;0.77;;;;;;;16.15;100.00;102247.06;5073876;28;20428;-29
2022/07/22 00:06:05;;;;;;;2.83;0.75;;;;;;;16.14;100.00;102246.22;5074055;28;20044;-31
2022/07/22 00:08:33;;;;;;;3.75;0.90;;;;;;;16.15;100.00;102241.41;5074681;28;20053;-30
2022/07/22 00:11:04;;;;;;;4.30;0.80;;;;;;;16.15;100.00;102242.25;5073297;28;20074;-33
2022/07/22 00:13:31;;;;;;;4.05;0.80;;;;;;;16.15;100.00;102241.41;5074447;28;20105;-32
2022/07/22 00:15:59;;;;;;;5.28;1.00;;;;;;;16.13;100.00;102238.91;5073806;28;20095;-35
2022/07/22 00:18:28;;;;;;;3.45;0.60;;;;;;;16.13;100.00;102238.91;5073463;28;20060;-29
2022/07/22 00:20:56;;;;;;;4.72;0.80;;;;;;;16.14;100.00;102245.38;5074126;28;20037;-31
2022/07/22 00:23:24;;;;;;;3.03;0.77;;;;;;;16.14;100.00;102234.94;5074308;28;20045;-34
2022/07/22 00:25:53;;;;;;;2.97;0.60;;;;;;;16.14;100.00;102240.59;5073062;28;20090;-36
2022/07/22 00:28:22;;;;;;;3.08;0.70;;;;;;;16.17;100.00;102239.97;5074246;28;20152;-33
2022/07/22 00:30:50;;;;;;;2.83;0.80;;;;;;;16.16;100.00;102241.13;5073940;28;20115;-32
2022/07/22 00:33:22;;;;;;;2.33;0.77;;;;;;;16.18;100.00;102235.19;5072953;28;20068;-35
2022/07/22 00:35:51;;;;;;;2.92;0.80;;;;;;;16.19;100.00;102234.00;5073875;28;20428;-31
2022/07/22 00:38:18;;;;;;;5.05;1.35;;;;;;;16.19;100.00;102232.03;5073000;28;20887;-31
2022/07/22 00:40:46;;;;;;;4.10;0.90;;;;;;;16.21;100.00;102228.91;5073984;28;20056;-31
2022/07/22 00:43:14;;;;;;;4.03;0.80;;;;;;;16.22;100.00;102226.94;5072411;28;20147;-34
2022/07/22 00:45:43;;;;;;;3.55;0.70;;;;;;;16.23;100.00;102226.63;5073118;28;20050;-37
2022/07/22 00:48:12;;;;;;;2.20;0.70;;;;;;;16.21;100.00;102217.66;5073830;28;20056;-32
2022/07/22 00:50:40;;;;;;;6.35;0.90;;;;;;;16.22;100.00;102221.31;5074033;28;20072;-32
2022/07/22 00:53:09;;;;;;;3.63;1.10;;;;;;;16.24;100.00;102219.88;5071247;28;20155;-34
2022/07/22 00:55:38;;;;;;;3.90;0.95;;;;;;;16.26;100.00;102223.22;5072639;28;20040;-34
2022/07/22 00:58:06;;;;;;;6.38;1.08;;;;;;;16.25;100.00;102223.53;5073368;28;20119;-31
2022/07/22 01:00:33;;;;;;;4.07;0.80;;;;;;;16.22;100.00;102218.50;5073144;28;20140;-35
2022/07/22 01:03:03;;;;;;;4.78;1.00;;;;;;;16.19;100.00;102217.94;5071809;28;20494;-36
2022/07/22 01:05:31;;;;;;;4.10;0.90;;;;;;;16.17;100.00;102214.63;5073845;28;20051;-31
2022/07/22 01:07:59;;;;;;;6.15;1.27;;;;;;;16.16;100.00;102220.56;5072453;28;20037;-33
2022/07/22 01:10:26;;;;;;;4.88;1.20;;;;;;;16.16;100.00;102220.56;5073590;28;20068;-31
2022/07/22 01:12:54;;;;;;;3.47;1.00;;;;;;;16.15;100.00;102227.34;5072281;28;20091;-31
2022/07/22 01:15:22;;;;;;;3.85;1.00;;;;;;;16.16;100.00;102226.19;5072936;28;20045;-32
2022/07/22 01:17:50;;;;;;;4.53;1.05;;;;;;;16.16;100.00;102220.56;5071694;28;20040;-30
2022/07/22 01:20:19;;;;;;;4.07;1.02;;;;;;;16.15;100.00;102222.53;5071173;28;20052;-32
2022/07/22 01:22:47;;;;;;;3.45;1.05;;;;;;;16.14;100.00;102218.06;5072792;28;20119;-31
2022/07/22 01:25:16;;;;;;;4.13;1.00;;;;;;;16.15;100.00;102214.09;5071657;28;20114;-31
2022/07/22 01:27:44;;;;;;;4.55;0.88;;;;;;;16.17;100.00;102213.78;5072145;28;20101;-33
2022/07/22 01:30:13;;;;;;;2.40;0.70;;;;;;;16.17;100.00;102222.25;5072033;28;20112;-30
2022/07/22 01:32:41;;;;;;;5.88;1.00;;;;;;;16.15;100.00;102221.72;5071443;28;20067;-37
2022/07/22 01:35:09;;;;;;;2.40;0.73;;;;;;;16.14;100.00;102218.06;5070527;28;20106;-31
2022/07/22 01:37:39;;;;;;;6.07;1.10;;;;;;;16.14;100.00;102223.69;5071357;28;20070;-38
2022/07/22 01:40:07;;;;;;;3.92;0.88;;;;;;;16.12;100.00;102225.97;5072442;28;20052;-32
2022/07/22 01:42:35;;;;;;;5.13;0.80;;;;;;;16.12;100.00;102222.31;5072043;28;20478;-31
2022/07/22 01:45:04;;;;;;;2.97;0.80;;;;;;;16.11;100.00;102220.63;5072715;28;20057;-32
2022/07/22 01:47:32;;;;;;;5.00;0.90;;;;;;;16.10;100.00;102218.97;5072405;28;20136;-39
2022/07/22 01:50:00;;;;;;;5.20;0.95;;;;;;;16.09;100.00;102215.31;5069675;28;20045;-34
2022/07/22 01:52:28;;;;;;;4.53;1.10;;;;;;;16.08;100.00;102213.63;5071001;28;20044;-38
2022/07/22 01:54:57;;;;;;;7.63;1.30;;;;;;;16.07;100.00;102211.94;5072347;28;20124;-34
2022/07/22 01:57:24;;;;;;;2.75;1.00;;;;;;;16.04;100.00;102209.72;5070525;28;20048;-35
2022/07/22 01:59:54;;;;;;;5.28;1.08;;;;;;;16.04;100.00;102206.09;5070827;28;20037;-36
2022/07/22 02:02:22;;;;;;;3.58;1.10;;;;;;;16.01;100.00;102204.69;5071041;28;20083;-33
2022/07/22 02:04:50;;;;;;;3.08;0.90;;;;;;;16.00;100.00;102205.00;5070254;28;20135;-31
2022/07/22 02:07:18;;;;;;;4.28;1.42;;;;;;;16.01;100.00;102204.69;5071183;28;20135;-34
2022/07/22 02:09:46;;;;;;;3.30;0.90;;;;;;;15.99;100.00;102198.53;5069856;28;20149;-31
2022/07/22 02:12:15;;;;;;;3.40;1.00;;;;;;;16.01;100.00;102203.88;5070886;28;20044;-33
2022/07/22 02:14:46;;;;;;;3.67;1.13;;;;;;;15.98;100.00;102199.72;5070613;28;20068;-34
2022/07/22 02:17:15;;;;;;;3.25;0.90;;;;;;;15.98;100.00;102198.88;5069882;28;20040;-32
2022/07/22 02:19:43;;;;;;;3.35;1.00;;;;;;;15.97;100.00;102205.63;5070430;28;20442;-36
2022/07/22 02:22:13;;;;;;;4.70;1.30;;;;;;;15.95;100.00;102197.50;5072410;28;20056;-34
2022/07/22 02:24:41;;;;;;;2.75;1.08;;;;;;;15.94;100.00;102203.44;5069467;28;20036;-33
2022/07/22 02:27:09;;;;;;;5.90;1.08;;;;;;;15.92;100.00;102208.50;5070567;28;20551;-32
2022/07/22 02:29:39;;;;;;;3.97;1.00;;;;;;;15.90;100.00;102205.16;5070426;28;20131;-32
2022/07/22 02:32:07;;;;;;;4.00;1.10;;;;;;;15.88;100.00;102204.63;5069449;28;20135;-34
2022/07/22 02:34:35;;;;;;;5.45;1.10;;;;;;;15.86;100.00;102199.28;5070637;28;20119;-36
2022/07/22 02:37:03;;;;;;;4.25;1.13;;;;;;;15.84;100.00;102201.56;5070269;28;20052;-31
2022/07/22 02:39:31;;;;;;;3.90;1.05;;;;;;;15.82;100.00;102204.69;5070930;28;20512;-35
2022/07/22 02:41:59;;;;;;;4.07;1.13;;;;;;;15.82;100.00;102206.66;5071434;28;20041;-32
2022/07/22 02:44:26;;;;;;;2.75;0.80;;;;;;;15.81;100.00;102208.63;5070251;28;20040;-31
2022/07/22 02:46:56;;;;;;;3.33;0.93;;;;;;;15.82;100.00;102209.47;5069164;28;20048;-32
2022/07/22 02:49:29;;;;;;;3.30;1.33;;;;;;;15.80;100.00;102201.31;5070626;28;20059;-31
2022/07/22 02:51:57;;;;;;;2.83;0.90;;;;;;;15.81;100.00;102203.00;5069213;28;20156;-31
2022/07/22 02:54:26;;;;;;;3.70;1.00;;;;;;;15.81;100.00;102199.34;5070398;28;20460;-31
2022/07/22 02:56:54;;;;;;;4.30;0.90;;;;;;;15.78;100.00;102203.63;5069850;28;20117;-31
2022/07/22 02:59:22;;;;;;;5.22;1.05;;;;;;;15.78;100.00;102202.81;5069557;28;20189;-36
2022/07/22 03:01:50;;;;;;;3.55;0.80;;;;;;;15.77;100.00;102201.97;5071517;28;20127;-31
2022/07/22 03:04:19;;;;;;;2.25;0.90;;;;;;;15.78;100.00;102203.63;5070485;28;20068;-32
2022/07/22 03:06:47;;;;;;;2.30;0.63;;;;;;;15.80;100.00;102206.13;5069221;28;20070;-31
2022/07/22 03:09:19;;;;;;;3.83;1.48;;;;;;;15.79;100.00;102204.44;5070398;28;20045;-32
2022/07/22 03:11:47;;;;;;;3.33;0.70;;;;;;;15.80;100.00;102211.75;5069923;28;20405;-35
2022/07/22 03:14:16;;;;;;;2.80;1.10;;;;;;;15.80;100.00;102200.50;5058527;28;20051;-31
2022/07/22 03:16:47;;;;;;;1.27;0.50;;;;;;;15.80;100.00;102206.13;5069743;28;20050;-31
2022/07/22 03:19:15;;;;;;;3.75;0.77;;;;;;;15.78;100.00;102209.25;5071200;28;20040;-35
2022/07/22 03:21:50;;;;;;;3.70;0.80;;;;;;;15.79;100.00;102212.88;5068844;28;20056;-35
2022/07/22 03:24:18;;;;;;;2.58;0.68;;;;;;;15.79;100.00;102215.69;5071419;28;20041;-31
2022/07/22 03:26:46;;;;;;;4.70;0.90;;;;;;;15.80;100.00;102211.75;5068280;28;20045;-31
2022/07/22 03:29:14;;;;;;;2.15;0.60;;;;;;;15.80;100.00;102220.19;5067775;28;20052;-34
2022/07/22 03:31:42;;;;;;;3.15;0.60;;;;;;;15.80;100.00;102217.38;5069524;28;20346;-34
2022/07/22 03:34:09;;;;;;;2.80;0.93;;;;;;;15.81;100.00;102217.09;5067964;28;20084;-35
2022/07/22 03:36:42;;;;;;;4.22;0.80;;;;;;;15.82;100.00;102217.91;5069805;28;20592;-31
2022/07/22 03:39:11;;;;;;;3.50;0.80;;;;;;;15.81;100.00;102207.81;5069732;28;20102;-32
2022/07/22 03:41:40;;;;;;;4.13;0.90;;;;;;;15.79;100.00;102212.88;5068887;28;20068;-37
2022/07/22 03:44:07;;;;;;;4.60;0.90;;;;;;;15.78;100.00;102214.91;5070861;28;20124;-33
2022/07/22 03:46:35;;;;;;;4.00;0.95;;;;;;;15.77;100.00;102212.38;5069617;28;20136;-32
2022/07/22 03:49:04;;;;;;;4.28;1.00;;;;;;;15.75;100.00;102206.22;5068577;28;20072;-32
2022/07/22 03:51:33;;;;;;;4.82;1.27;;;;;;;15.74;100.00;102202.56;5069711;28;20044;-31
2022/07/22 03:54:01;;;;;;;3.67;0.82;;;;;;;15.74;100.00;102207.34;5069114;28;20052;-32
2022/07/22 03:56:31;;;;;;;4.53;1.00;;;;;;;15.72;100.00;102206.81;5068808;28;20048;-39
2022/07/22 03:58:59;;;;;;;2.20;0.70;;;;;;;15.71;100.00;102205.13;5069076;28;20052;-32
2022/07/22 04:01:28;;;;;;;2.10;0.80;;;;;;;15.71;100.00;102205.13;5069421;28;20399;-31
2022/07/22 04:03:56;;;;;;;2.67;0.60;;;;;;;15.71;100.00;102202.31;5068348;28;20053;-35
2022/07/22 04:06:35;;;;;;;3.15;0.70;;;;;;;15.70;100.00;102200.63;5070916;28;20524;-33
2022/07/22 04:09:10;;;;;;;2.55;0.70;;;;;;;15.71;100.00;102202.31;5068856;28;20436;-31
2022/07/22 04:11:39;;;;;;;2.63;0.70;;;;;;;15.73;100.00;102212.13;5070304;28;20522;-31
2022/07/22 04:14:09;;;;;;;3.67;0.77;;;;;;;15.73;100.00;102205.66;5072474;28;20049;-31
2022/07/22 04:16:37;;;;;;;1.33;0.60;;;;;;;15.73;100.00;102205.66;5072399;28;20299;-38
2022/07/22 04:19:10;;;;;;;3.92;0.80;;;;;;;15.73;100.00;102206.50;5072708;28;20619;-36
2022/07/22 04:21:58;;;;;;;1.77;0.68;;;;;;;15.74;100.00;102207.34;5073176;28;20048;-37
2022/07/22 04:24:29;;;;;;;2.00;0.70;;;;;;;15.76;100.00;102199.44;5071650;28;20402;-34
2022/07/22 04:26:59;;;;;;;2.50;0.60;;;;;;;15.77;100.00;102201.13;5072929;28;20434;-32
2022/07/22 04:29:27;;;;;;;4.50;0.98;;;;;;;15.78;100.00;102197.16;5072490;28;20448;-32
2022/07/22 04:31:54;;;;;;;2.72;0.77;;;;;;;15.77;100.00;102201.97;5073418;28;20045;-32
2022/07/22 04:34:29;;;;;;;1.85;0.60;;;;;;;15.78;100.00;102197.16;5072370;28;20139;-32
2022/07/22 04:36:58;;;;;;;1.45;0.55;;;;;;;15.80;100.00;102190.06;5072567;28;20131;-34
2022/07/22 04:39:29;;;;;;;1.73;0.60;;;;;;;15.82;100.00;102181.31;5071813;28;20044;-33
2022/07/22 04:41:59;;;;;;;1.70;0.50;;;;;;;15.85;100.00;102187.19;5072622;28;20405;-31
2022/07/22 04:44:29;;;;;;;1.35;0.40;;;;;;;15.87;100.00;102186.06;5071461;28;20827;-35
2022/07/22 04:46:57;;;;;;;1.92;0.57;;;;;;;15.89;100.00;102181.81;5072365;28;20098;-34
2022/07/22 04:49:26;;;;;;;2.78;0.50;;;;;;;15.93;100.00;102185.69;5072974;28;20128;-30
2022/07/22 04:51:58;;;;;;;1.98;0.60;;;;;;;15.97;100.00;102185.94;5071203;28;20048;-30
2022/07/22 04:54:37;;;;;;;1.10;0.50;;;;;;;15.98;100.00;102191.25;5072335;28;20139;-32
2022/07/22 04:57:08;;;;;;;2.22;0.65;;;;;;;16.00;100.00;102186.13;5071505;28;20052;-32
2022/07/22 04:59:36;;;;;;;2.13;0.63;;;;;;;16.00;100.00;102191.75;5071265;28;20409;-31
2022/07/22 05:02:04;;;;;;;1.17;0.50;;;;;;;15.99;100.00;102201.34;5071566;28;20040;-35
2022/07/22 05:04:32;;;;;;;2.60;0.70;;;;;;;15.99;100.00;102195.72;5072121;28;20143;-30
2022/07/22 05:07:02;;;;;;;2.33;0.63;;;;;;;15.99;100.00;102192.91;5070820;28;20491;-30
2022/07/22 05:09:30;;;;;;;3.63;0.80;;;;;;;16.00;100.00;102197.41;5070326;28;20052;-36
2022/07/22 05:11:59;;;;;;;2.03;0.60;;;;;;;16.01;100.00;102189.78;5071123;28;20052;-36
2022/07/22 05:14:29;;;;;;;2.22;0.60;;;;;;;16.03;100.00;102201.59;5070367;28;20127;-34
2022/07/22 05:16:57;;;;;;;4.07;0.63;;;;;;;16.05;100.00;102200.16;5071510;28;20052;-37
2022/07/22 05:19:25;;;;;;;2.15;0.80;;;;;;;16.08;100.00;102207.16;5071240;28;20124;-30
2022/07/22 05:21:53;;;;;;;1.75;0.60;;;;;;;16.08;100.00;102199.53;5071285;28;20131;-31
2022/07/22 05:24:21;;;;;;;2.35;0.63;;;;;;;16.07;100.00;102209.13;5071705;28;20064;-35
2022/07/22 05:26:49;;;;;;;3.90;0.52;;;;;;;16.08;100.00;102208.00;5070314;28;20090;-36
2022/07/22 05:29:16;;;;;;;3.45;0.57;;;;;;;16.07;100.00;102209.13;5072896;28;20043;-31
2022/07/22 05:31:46;;;;;;;1.73;0.70;;;;;;;16.09;100.00;102206.84;5071058;28;20049;-30
2022/07/22 05:34:14;;;;;;;2.00;0.47;;;;;;;16.12;100.00;102208.22;5070813;28;20398;-32
2022/07/22 05:36:45;;;;;;;1.73;0.60;;;;;;;16.13;100.00;102199.47;5071131;28;20046;-36
2022/07/22 05:39:14;;;;;;;3.42;0.60;;;;;;;16.17;100.00;102200.56;5071406;28;20079;-35
2022/07/22 05:41:42;;;;;;;2.13;0.40;;;;;;;16.22;100.00;102204.41;5071900;28;20123;-35
2022/07/22 05:44:10;;;;;;;1.35;0.55;;;;;;;16.28;100.00;102209.66;5071412;28;20056;-32
2022/07/22 05:46:38;;;;;;;1.48;0.50;;;;;;;16.35;100.00;102215.78;5072109;28;20056;-35
2022/07/22 05:49:08;;;;;;;1.38;0.50;;;;;;;16.42;100.00;102206.91;5070484;28;20074;-32
2022/07/22 05:51:49;;;;;;;2.13;0.50;;;;;;;16.47;100.00;102204.03;5071059;28;20421;-39
2022/07/22 05:54:18;;;;;;;1.75;0.50;;;;;;;16.51;100.00;102211.56;5072807;28;20453;-32
2022/07/22 05:56:45;;;;;;;2.65;0.65;;;;;;;16.56;100.00;102213.47;5070044;28;20078;-32
2022/07/22 05:59:13;;;;;;;2.33;0.60;;;;;;;16.61;100.00;102206.88;5071009;28;20079;-37
2022/07/22 06:01:41;;;;;;;2.17;0.68;;;;;;;16.63;100.00;102207.41;5070484;28;20056;-36
2022/07/22 06:04:31;;;;;;;2.75;0.65;;;;;;;16.65;100.00;102200.38;5069048;28;20049;-33
2022/07/22 06:07:00;;;;;;;1.75;0.60;;;;;;;16.69;100.00;102206.22;5069230;28;20079;-34
2022/07/22 06:09:28;;;;;;;2.45;0.60;;;;;;;16.74;100.00;102209.81;5069365;28;20056;-37
2022/07/22 06:11:57;;;;;;;1.58;0.60;;;;;;;16.78;100.00;102210.88;5070013;28;20071;-42
2022/07/22 06:14:25;;;;;;;2.42;0.63;;;;;;;16.83;100.00;102207.94;5069767;28;20079;-33
2022/07/22 06:16:52;;;;;;;1.65;0.50;;;;;;;16.90;100.00;102206.72;5068812;28;20076;-31
2022/07/22 06:19:20;;;;;;;1.52;0.60;;;;;;;16.96;100.00;102205.50;5070852;28;20060;-31
2022/07/22 06:21:50;;;;;;;2.05;0.50;;;;;;;17.01;100.00;102202.56;5049885;28;20484;-31
2022/07/22 06:24:17;;;;;;;1.60;0.50;;;;;;;17.04;100.00;102196.28;5067411;28;20041;-39
2022/07/22 06:26:45;;;;;;;2.00;0.50;;;;;;;17.07;100.00;102198.50;5070929;28;20082;-40
2022/07/22 06:29:15;;;;;;;1.42;0.50;;;;;;;17.10;100.00;102198.72;5068827;28;20119;-34
2022/07/22 06:31:43;;;;;;;2.53;0.88;;;;;;;17.14;100.00;102193.28;5070424;28;20056;-36
2022/07/22 06:34:11;;;;;;;2.35;0.60;;;;;;;17.18;100.00;102200.00;5068635;28;20052;-41
2022/07/22 06:36:55;;;;;;;1.40;0.50;;;;;;;17.22;100.00;102195.38;5069198;28;20048;-35
2022/07/22 06:39:23;;;;;;;2.20;0.57;;;;;;;17.26;100.00;102199.25;5070512;28;20048;-34
2022/07/22 06:42:09;;;;;;;2.03;0.70;;;;;;;17.27;100.00;102198.13;5070568;28;20045;-33
2022/07/22 06:45:10;;;;;;;2.70;0.88;;;;;;;17.28;100.00;102207.41;5046422;28;20056;-32
2022/07/22 06:47:47;;;;;;;1.80;0.68;;;;;;;17.31;100.00;102207.63;5051901;28;20059;-34
2022/07/22 06:50:16;;;;;;;1.40;0.50;;;;;;;17.35;100.00;102205.88;5068843;28;20090;-36
2022/07/22 06:52:46;;;;;;;2.80;0.50;;;;;;;17.39;100.00;102201.25;5068419;28;20151;-34
2022/07/22 06:55:15;;;;;;;1.85;0.40;;;;;;;17.43;100.00;102209.94;5068825;28;20048;-37
2022/07/22 06:57:49;;;;;;;0.98;0.40;;;;;;;17.48;100.00;102212.66;5068611;28;20052;-33
2022/07/22 07:00:18;;;;;;;2.50;0.60;;;;;;;17.51;100.00;102212.03;5069733;28;20379;-38
2022/07/22 07:03:06;;;;;;;1.92;0.47;;;;;;;17.52;100.00;102208.06;5071338;28;20406;-39
2022/07/22 07:05:58;;;;;;;1.70;0.65;;;;;;;17.56;100.00;102207.13;5069174;28;20040;-41
2022/07/22 07:08:31;;;;;;;;;;;;;;;17.57;100.00;102213.63;5070703;28;20044;-35
2022/07/22 07:10:59;;;;;;;1.42;0.45;;;;;;;17.62;100.00;102212.66;5070050;28;20407;-33
2022/07/22 07:13:27;;;;;;;3.33;0.63;;;;;;;17.71;100.00;102205.16;5069652;28;20083;-37
2022/07/22 07:15:54;;;;;;;2.05;0.60;;;;;;;17.73;100.00;102208.50;5070082;28;20049;-32
2022/07/22 07:18:23;;;;;;;3.05;0.70;;;;;;;17.77;100.00;102206.72;5071710;28;20044;-32
2022/07/22 07:20:51;;;;;;;1.80;0.80;;;;;;;17.81;100.00;102207.75;5068972;28;20041;-32
2022/07/22 07:23:19;;;;;;;2.08;0.82;;;;;;;17.83;99.90;102209.09;5071542;28;20125;-40
2022/07/22 07:25:50;;;;;;;1.58;0.63;;;;;;;17.87;99.81;102201.69;5069611;28;20390;-35
2022/07/22 07:28:19;;;;;;;2.10;0.68;;;;;;;17.93;99.24;102204.41;5069457;28;20139;-33
2022/07/22 07:30:51;;;;;;;3.35;0.80;;;;;;;17.98;98.66;102207.97;5069802;28;20063;-34
2022/07/22 07:33:21;;;;;;;1.98;0.88;;;;;;;18.01;97.99;102210.13;5069186;28;20087;-35
2022/07/22 07:35:49;;;;;;;2.22;0.70;;;;;;;18.07;97.55;102214.50;5069386;28;20135;-34
2022/07/22 07:38:24;;;;;;;2.35;0.70;;;;;;;18.13;96.53;102206.78;5069767;28;20053;-34
2022/07/22 07:40:53;;;;;;;3.78;0.98;;;;;;;18.15;95.70;102198.81;5070195;28;20124;-36
2022/07/22 07:43:22;;;;;;;2.50;0.68;;;;;;;18.18;94.89;102199.03;5069976;28;20086;-33
2022/07/22 07:45:49;;;;;;;2.53;0.70;;;;;;;18.27;94.92;102201.06;5069421;28;20566;-43
2022/07/22 07:48:17;;;;;;;3.35;0.80;;;;;;;18.35;94.25;102201.16;5074198;28;20074;-38
2022/07/22 07:50:46;;;;;;;1.33;0.60;;;;;;;18.38;93.15;102200.53;5072580;28;20056;-34
2022/07/22 07:53:16;;;;;;;1.55;0.50;;;;;;;18.43;92.56;102197.56;5072202;28;20122;-37
2022/07/22 07:55:46;;;;;;;2.22;0.65;;;;;;;18.49;91.79;102199.13;5069343;28;20045;-31
2022/07/22 07:58:16;;;;;;;1.40;0.70;;;;;;;18.54;91.02;102198.16;5071903;28;20044;-32
2022/07/22 08:00:44;;;;;;;2.65;0.60;;;;;;;18.55;89.72;102189.34;5071489;28;20052;-33
2022/07/22 08:03:13;;;;;;;2.20;0.75;;;;;;;18.58;88.91;102190.72;5070536;28;20071;-33
2022/07/22 08:05:41;;;;;;;1.83;0.73;;;;;;;18.62;88.35;102188.91;5071777;28;20419;-32
2022/07/22 08:08:15;;;;;;;1.77;0.77;;;;;;;18.68;87.85;102189.63;5071557;28;20052;-42
2022/07/22 08:10:44;;;;;;;2.97;0.60;;;;;;;18.73;87.21;102190.34;5073005;28;20097;-37
2022/07/22 08:13:39;;;;;;;1.80;0.50;;;;;;;18.79;86.98;102186.22;5073299;28;20044;-32
2022/07/22 08:16:27;;;;;;;1.15;0.50;;;;;;;18.85;86.80;102182.09;5059225;28;20059;-33
2022/07/22 08:18:55;;;;;;;1.60;0.50;;;;;;;18.93;86.02;102189.81;5072958;28;20402;-35
2022/07/22 08:21:25;;;;;;;1.10;0.40;;;;;;;18.96;85.43;102188.34;5072571;28;20289;-36
2022/07/22 08:23:57;;;;;;;1.13;0.50;;;;;;;19.06;85.78;102185.22;5072231;28;20070;-34
2022/07/22 08:26:25;;;;;;;1.95;0.50;;;;;;;19.14;85.09;102190.09;5073154;28;20396;-42
2022/07/22 08:29:00;;;;;;;3.40;0.70;;;;;;;19.18;84.39;102196.75;5072781;28;20082;-36
2022/07/22 08:31:31;;;;;;;2.58;0.60;;;;;;;19.22;83.50;102197.78;5072294;28;20040;-41
2022/07/22 08:34:00;;;;;;;1.83;0.65;;;;;;;19.30;83.59;102196.16;5072605;28;20509;-38
2022/07/22 08:36:29;;;;;;;1.85;0.60;;;;;;;19.39;83.52;102185.69;5071763;28;20558;-39
2022/07/22 08:38:57;;;;;;;1.50;0.50;;;;;;;19.53;83.36;102194.97;5074008;28;20127;-35
2022/07/22 08:41:26;;;;;;;4.22;0.70;;;;;;;19.68;83.05;102190.84;5052509;28;20132;-35
2022/07/22 08:43:57;;;;;;;1.25;0.50;;;;;;;19.83;82.39;102190.38;5071397;28;20049;-35
2022/07/22 08:46:27;;;;;;;1.80;0.55;;;;;;;19.94;81.84;102194.59;5073731;28;20040;-33
2022/07/22 08:49:30;;;;;;;1.70;0.65;;;;;;;19.97;80.87;102189.41;5068336;28;20191;-34
2022/07/22 08:52:39;;;;;;;3.20;0.47;;;;;;;20.02;80.78;102190.06;5061281;28;20075;-33
2022/07/22 08:55:09;;;;;;;2.10;0.60;;;;;;;20.10;79.71;102191.25;5073875;28;20056;-35
2022/07/22 08:57:37;;;;;;;2.30;0.80;;;;;;;20.15;79.31;102183.44;5071415;28;20048;-35
2022/07/22 09:00:12;;;;;;;2.42;0.60;;;;;;;20.18;78.56;102182.75;5072417;28;20048;-36
2022/07/22 09:02:43;;;;;;;2.40;0.50;;;;;;;20.27;79.15;102191.28;5072179;28;20044;-33
2022/07/22 09:05:14;;;;;;;1.92;0.70;;;;;;;20.30;78.40;102182.94;5071253;28;20525;-37
2022/07/22 09:08:05;;;;;;;1.00;0.40;;;;;;;20.35;78.64;102186.78;5072022;28;20037;-43
2022/07/22 09:10:44;;;;;;;2.33;0.60;;;;;;;20.42;78.61;102196.47;5072283;28;20049;-33
2022/07/22 09:13:34;;;;;;;1.98;0.50;;;;;;;20.45;77.98;102186.47;5072450;28;20078;-40
2022/07/22 09:16:42;;;;;;;2.55;0.55;;;;;;;20.48;77.91;102174.47;5070569;28;20087;-38
2022/07/22 09:19:35;;;;;;;1.55;0.85;;;;;;;20.56;78.42;102179.31;5070249;28;20371;-32
2022/07/22 09:22:36;;;;;;;1.38;0.47;;;;;;;20.66;77.61;102187.47;5072714;28;20094;-33
2022/07/22 09:25:23;;;;;;;1.88;0.50;;;;;;;20.68;77.84;102190.78;5070870;28;20088;-32
2022/07/22 09:28:17;;;;;;;1.92;0.47;;;;;;;20.77;77.85;102190.78;5054025;28;20091;-36
2022/07/22 09:31:05;;;;;;;2.60;0.52;;;;;;;20.81;77.46;102180.41;5072341;28;20101;-33
2022/07/22 09:33:44;;;;;;;1.92;0.50;;;;;;;20.84;77.23;102177.75;5070703;28;20381;-32
2022/07/22 09:36:24;;;;;;;1.40;0.57;;;;;;;20.89;77.35;102174.72;5072550;28;20040;-35
2022/07/22 09:38:54;;;;;;;2.00;0.60;;;;;;;20.93;77.57;102187.09;5071049;28;20096;-33
2022/07/22 09:41:24;;;;;;;1.75;0.75;;;;;;;20.93;77.41;102181.41;5070178;28;20094;-33
2022/07/22 09:43:52;;;;;;;1.33;0.50;;;;;;;20.93;77.52;102184.25;5071171;28;20143;-33
2022/07/22 09:46:35;;;;;;;2.50;0.60;;;;;;;20.94;77.61;102183.06;5070711;28;20477;-42
2022/07/22 09:49:31;;;;;;;1.60;0.57;;;;;;;20.89;77.89;102197.44;5071101;28;20527;-33
2022/07/22 09:52:20;;;;;;;1.20;0.50;;;;;;;20.86;78.66;102189.59;5071248;28;20051;-38
2022/07/22 09:55:15;;;;;;;2.25;0.43;;;;;;;20.82;78.24;102185.75;5070061;28;20059;-33
2022/07/22 09:57:45;;;;;;;1.13;0.50;;;;;;;20.80;78.08;102190.09;5060501;28;20829;-32
2022/07/22 10:00:15;;;;;;;2.15;0.50;;;;;;;20.80;78.38;102181.59;5070444;28;20044;-40
2022/07/22 10:02:50;;;;;;;1.00;0.47;;;;;;;20.81;79.01;102184.09;5070125;28;20114;-33
2022/07/22 10:05:22;;;;;;;1.83;0.57;;;;;;;20.84;78.40;102189.09;5070369;28;20041;-35
2022/07/22 10:07:53;;;;;;;2.08;0.60;;;;;;;20.84;78.25;102189.09;5069786;28;20833;-33
2022/07/22 10:10:23;;;;;;;1.52;0.55;;;;;;;20.86;78.04;102191.59;5069308;28;20048;-33
2022/07/22 10:12:52;;;;;;;2.35;0.57;;;;;;;20.89;77.74;102197.44;5070636;28;20044;-32
2022/07/22 10:15:21;;;;;;;1.77;0.50;;;;;;;20.93;77.84;102192.75;5069424;28;20055;-33
2022/07/22 10:17:52;;;;;;;1.77;0.50;;;;;;;20.94;77.76;102204.94;5070639;28;20068;-41
2022/07/22 10:20:23;;;;;;;1.15;0.40;;;;;;;20.93;77.65;102204.09;5070404;28;20052;-37
2022/07/22 10:22:56;;;;;;;1.52;0.50;;;;;;;20.90;77.37;102201.94;5069503;28;20141;-35
2022/07/22 10:25:31;;;;;;;1.20;0.50;;;;;;;20.86;77.21;102200.09;5070248;28;20044;-34
2022/07/22 10:28:02;;;;;;;1.65;0.50;;;;;;;20.87;77.36;102198.94;5070109;28;20234;-37
2022/07/22 10:30:33;;;;;;;2.87;0.50;;;;;;;20.88;77.62;102195.78;5070934;28;20043;-33
2022/07/22 10:33:09;;;;;;;1.40;0.47;;;;;;;20.88;77.45;102195.78;5071218;28;20059;-33
2022/07/22 10:35:53;;;;;;;2.42;0.60;;;;;;;20.85;77.47;102192.75;5071675;28;20136;-41
2022/07/22 10:38:23;;;;;;;1.25;0.57;;;;;;;20.90;77.87;102201.09;5070146;28;20105;-33
2022/07/22 10:40:55;;;;;;;1.63;0.57;;;;;;;20.95;77.51;102189.59;5071494;28;20140;-41
2022/07/22 10:43:25;;;;;;;2.78;0.68;;;;;;;20.97;76.71;102187.25;5070455;28;20049;-37
2022/07/22 10:45:55;;;;;;;1.30;0.50;;;;;;;20.99;76.89;102191.38;5071576;28;20055;-33
2022/07/22 10:48:26;;;;;;;1.60;0.50;;;;;;;21.07;76.63;102192.53;5071361;28;20052;-32
2022/07/22 10:51:12;;;;;;;2.60;0.60;;;;;;;21.15;75.46;102200.22;5070806;28;20166;-36
2022/07/22 10:53:47;;;;;;;1.98;0.50;;;;;;;21.17;75.84;102197.03;5069951;28;20052;-38
2022/07/22 10:56:26;;;;;;;1.63;0.50;;;;;;;21.23;75.71;102196.53;5071239;28;20052;-32
2022/07/22 10:59:14;;;;;;;1.55;0.43;;;;;;;21.28;74.47;102198.34;5070309;28;20049;-41
2022/07/22 11:01:45;;;;;;;1.83;0.60;;;;;;;21.29;74.41;102202.88;5069963;28;20060;-32
2022/07/22 11:04:16;;;;;;;1.48;0.45;;;;;;;21.32;74.34;102199.34;5070405;28;20077;-32
2022/07/22 11:06:47;;;;;;;1.23;0.40;;;;;;;21.33;73.78;102201.03;5071756;28;20056;-36
2022/07/22 11:09:17;;;;;;;3.00;0.65;;;;;;;21.34;73.51;102199.84;5071131;28;20077;-33
2022/07/22 11:11:49;;;;;;;1.27;0.40;;;;;;;21.35;73.67;102197.84;5070615;28;20362;-43
2022/07/22 11:14:26;;;;;;;1.42;0.50;;;;;;;21.40;73.64;102197.63;5071010;28;20110;-42
2022/07/22 11:16:56;;;;;;;1.50;0.50;;;;;;;21.40;73.15;102194.78;5071170;28;20040;-40
2022/07/22 11:19:26;;;;;;;1.30;0.57;;;;;;;21.44;73.29;102198.63;5070365;28;20045;-43
2022/07/22 11:21:57;;;;;;;1.42;0.40;;;;;;;21.40;72.34;102195.63;5074309;28;20058;-38
2022/07/22 11:24:27;;;;;;;0.87;0.37;;;;;;;21.40;72.47;102189.13;5074881;28;20144;-35
2022/07/22 11:26:56;;;;;;;1.50;0.50;;;;;;;21.45;72.45;102178.41;5074588;28;20278;-34
2022/07/22 11:29:34;;;;;;;1.27;0.47;;;;;;;21.50;72.22;102166.84;5074752;28;20044;-37
2022/07/22 11:32:04;;;;;;;1.13;0.40;;;;;;;21.58;71.55;102168.81;5075101;28;20139;-35
2022/07/22 11:34:32;;;;;;;2.28;0.30;;;;;;;21.64;71.50;102163.78;5074645;28;20048;-34
2022/07/22 11:37:00;;;;;;;1.65;0.45;;;;;;;21.74;71.60;102165.41;5075086;28;20046;-38
2022/07/22 11:39:31;;;;;;;1.38;0.40;;;;;;;21.82;70.90;102164.50;5073835;28;20167;-39